sensor_id;sensor_type;location;lat;lon;timestamp;temperature;humidity
20722;DHT22;10522;52.198;9.890;2023-07-08T00:00:16;15.60;99.90
20722;DHT22;10522;52.198;9.890;2023-07-08T00:02:43;15.60;99.90
20722;DHT22;10522;52.198;9.890;2023-07-08T00:05:10;15.60;99.90
20722;DHT22;10522;52.198;9.890;2023-07-08T00:07:37;15.60;99.90
20722;DHT22;10522;52.198;9.890;2023-07-08T00:10:15;15.50;99.90
20722;DHT22;10522;52.198;9.890;2023-07-08T00:12:42;15.50;99.90
20722;DHT22;10522;52.198;9.890;2023-07-08T00:15:08;15.50;99.90
20722;DHT22;10522;52.198;9.890;2023-07-08T00:17:35;15.50;99.90
20722;DHT22;10522;52.198;9.890;2023-07-08T00:20:00;15.50;99.90
20722;DHT22;10522;52.198;9.890;2023-07-08T00:22:26;15.50;99.90
20722;DHT22;10522;52.198;9.890;2023-07-08T00:24:51;15.50;99.90
20722;DHT22;10522;52.198;9.890;2023-07-08T00:27:17;15.50;99.90
20722;DHT22;10522;52.198;9.890;2023-07-08T00:29:43;15.50;99.90
20722;DHT22;10522;52.198;9.890;2023-07-08T00:32:15;15.60;99.90
20722;DHT22;10522;52.198;9.890;2023-07-08T00:34:41;15.40;99.90
20722;DHT22;10522;52.198;9.890;2023-07-08T00:37:11;15.30;99.90
20722;DHT22;10522;52.198;9.890;2023-07-08T00:39:36;15.40;99.90
20722;DHT22;10522;52.198;9.890;2023-07-08T00:42:18;15.30;99.90
20722;DHT22;10522;52.198;9.890;2023-07-08T00:44:44;15.20;99.90
20722;DHT22;10522;52.198;9.890;2023-07-08T00:47:11;15.20;99.90
20722;DHT22;10522;52.198;9.890;2023-07-08T00:49:42;15.20;99.90
20722;DHT22;10522;52.198;9.890;2023-07-08T00:52:24;15.10;99.90
20722;DHT22;10522;52.198;9.890;2023-07-08T00:54:52;15.00;99.90
20722;DHT22;10522;52.198;9.890;2023-07-08T00:57:18;15.20;99.90
20722;DHT22;10522;52.198;9.890;2023-07-08T00:59:55;15.10;99.90
20722;DHT22;10522;52.198;9.890;2023-07-08T01:02:24;15.10;99.90
20722;DHT22;10522;52.198;9.890;2023-07-08T01:05:05;15.10;99.90
20722;DHT22;10522;52.198;9.890;2023-07-08T01:07:33;15.10;99.90
20722;DHT22;10522;52.198;9.890;2023-07-08T01:10:13;15.10;99.90
20722;DHT22;10522;52.198;9.890;2023-07-08T01:12:43;15.10;99.90
20722;DHT22;10522;52.198;9.890;2023-07-08T01:15:12;15.30;99.90
20722;DHT22;10522;52.198;9.890;2023-07-08T01:17:38;15.40;99.90
20722;DHT22;10522;52.198;9.890;2023-07-08T01:20:06;15.50;99.90
20722;DHT22;10522;52.198;9.890;2023-07-08T01:22:35;15.50;99.90
20722;DHT22;10522;52.198;9.890;2023-07-08T01:25:02;15.50;99.90
20722;DHT22;10522;52.198;9.890;2023-07-08T01:27:31;15.40;99.90
20722;DHT22;10522;52.198;9.890;2023-07-08T01:29:58;15.50;99.90
20722;DHT22;10522;52.198;9.890;2023-07-08T01:32:24;15.30;99.90
20722;DHT22;10522;52.198;9.890;2023-07-08T01:34:51;15.20;99.90
20722;DHT22;10522;52.198;9.890;2023-07-08T01:40:23;15.10;99.90
20722;DHT22;10522;52.198;9.890;2023-07-08T01:42:49;15.10;99.90
20722;DHT22;10522;52.198;9.890;2023-07-08T01:45:17;15.10;99.90
20722;DHT22;10522;52.198;9.890;2023-07-08T01:47:56;15.00;99.90
20722;DHT22;10522;52.198;9.890;2023-07-08T01:50:25;15.00;99.90
20722;DHT22;10522;52.198;9.890;2023-07-08T01:52:52;15.00;99.90
20722;DHT22;10522;52.198;9.890;2023-07-08T01:55:23;15.00;99.90
20722;DHT22;10522;52.198;9.890;2023-07-08T01:57:51;15.00;99.90
20722;DHT22;10522;52.198;9.890;2023-07-08T02:00:18;15.00;99.90
20722;DHT22;10522;52.198;9.890;2023-07-08T02:02:43;15.10;99.90
20722;DHT22;10522;52.198;9.890;2023-07-08T02:05:09;15.10;99.90
20722;DHT22;10522;52.198;9.890;2023-07-08T02:07:34;15.00;99.90
20722;DHT22;10522;52.198;9.890;2023-07-08T02:10:00;15.10;99.90
20722;DHT22;10522;52.198;9.890;2023-07-08T02:12:26;15.00;99.90
20722;DHT22;10522;52.198;9.890;2023-07-08T02:14:51;15.00;99.90
20722;DHT22;10522;52.198;9.890;2023-07-08T02:17:17;15.00;99.90
20722;DHT22;10522;52.198;9.890;2023-07-08T02:19:43;15.10;99.90
20722;DHT22;10522;52.198;9.890;2023-07-08T02:22:09;15.00;99.90
20722;DHT22;10522;52.198;9.890;2023-07-08T02:24:35;15.00;99.90
20722;DHT22;10522;52.198;9.890;2023-07-08T02:27:00;15.10;99.90
20722;DHT22;10522;52.198;9.890;2023-07-08T02:29:26;15.00;99.90
20722;DHT22;10522;52.198;9.890;2023-07-08T02:31:52;14.90;99.90
20722;DHT22;10522;52.198;9.890;2023-07-08T02:34:18;14.80;99.90
20722;DHT22;10522;52.198;9.890;2023-07-08T02:36:43;14.70;99.90
20722;DHT22;10522;52.198;9.890;2023-07-08T02:39:10;14.70;99.90
20722;DHT22;10522;52.198;9.890;2023-07-08T02:41:36;14.70;99.90
20722;DHT22;10522;52.198;9.890;2023-07-08T02:44:02;14.60;99.90
20722;DHT22;10522;52.198;9.890;2023-07-08T02:46:27;14.60;99.90
20722;DHT22;10522;52.198;9.890;2023-07-08T02:48:53;14.50;99.90
20722;DHT22;10522;52.198;9.890;2023-07-08T02:51:19;14.40;99.90
20722;DHT22;10522;52.198;9.890;2023-07-08T02:53:44;14.40;99.90
20722;DHT22;10522;52.198;9.890;2023-07-08T02:56:10;14.40;99.90
20722;DHT22;10522;52.198;9.890;2023-07-08T02:58:36;14.20;99.90
20722;DHT22;10522;52.198;9.890;2023-07-08T03:01:01;14.20;99.90
20722;DHT22;10522;52.198;9.890;2023-07-08T03:03:28;14.10;99.90
20722;DHT22;10522;52.198;9.890;2023-07-08T03:05:59;14.00;99.90
20722;DHT22;10522;52.198;9.890;2023-07-08T03:08:25;14.00;99.90
20722;DHT22;10522;52.198;9.890;2023-07-08T03:11:02;14.10;99.90
20722;DHT22;10522;52.198;9.890;2023-07-08T03:13:28;14.10;99.90
20722;DHT22;10522;52.198;9.890;2023-07-08T03:15:55;14.10;99.90
20722;DHT22;10522;52.198;9.890;2023-07-08T03:18:21;14.10;99.90
20722;DHT22;10522;52.198;9.890;2023-07-08T03:20:48;14.10;99.90
20722;DHT22;10522;52.198;9.890;2023-07-08T03:23:14;14.10;99.90
20722;DHT22;10522;52.198;9.890;2023-07-08T03:25:40;14.30;99.90
20722;DHT22;10522;52.198;9.890;2023-07-08T03:28:06;14.20;99.90
20722;DHT22;10522;52.198;9.890;2023-07-08T03:30:33;14.20;99.90
20722;DHT22;10522;52.198;9.890;2023-07-08T03:33:00;14.10;99.90
20722;DHT22;10522;52.198;9.890;2023-07-08T03:35:25;14.10;99.90
20722;DHT22;10522;52.198;9.890;2023-07-08T03:37:52;14.00;99.90
20722;DHT22;10522;52.198;9.890;2023-07-08T03:40:18;13.80;99.90
20722;DHT22;10522;52.198;9.890;2023-07-08T03:42:44;13.70;99.90
20722;DHT22;10522;52.198;9.890;2023-07-08T03:45:10;13.60;99.90
20722;DHT22;10522;52.198;9.890;2023-07-08T03:47:35;13.50;99.90
20722;DHT22;10522;52.198;9.890;2023-07-08T03:50:02;13.40;99.90
20722;DHT22;10522;52.198;9.890;2023-07-08T03:52:27;13.40;99.90
20722;DHT22;10522;52.198;9.890;2023-07-08T03:54:53;13.40;99.90
20722;DHT22;10522;52.198;9.890;2023-07-08T03:57:18;13.40;99.90
20722;DHT22;10522;52.198;9.890;2023-07-08T03:59:44;13.50;99.90
20722;DHT22;10522;52.198;9.890;2023-07-08T04:02:13;13.50;99.90
20722;DHT22;10522;52.198;9.890;2023-07-08T04:04:38;13.40;99.90
20722;DHT22;10522;52.198;9.890;2023-07-08T04:07:05;13.40;99.90
20722;DHT22;10522;52.198;9.890;2023-07-08T04:09:31;13.30;99.90
20722;DHT22;10522;52.198;9.890;2023-07-08T04:11:56;13.30;99.90
20722;DHT22;10522;52.198;9.890;2023-07-08T04:14:23;13.40;99.90
20722;DHT22;10522;52.198;9.890;2023-07-08T04:16:55;13.40;99.90
20722;DHT22;10522;52.198;9.890;2023-07-08T04:19:23;13.50;99.90
20722;DHT22;10522;52.198;9.890;2023-07-08T04:21:49;13.60;99.90
20722;DHT22;10522;52.198;9.890;2023-07-08T04:24:16;13.60;99.90
20722;DHT22;10522;52.198;9.890;2023-07-08T04:26:43;13.70;99.90
20722;DHT22;10522;52.198;9.890;2023-07-08T04:29:16;13.80;99.90
20722;DHT22;10522;52.198;9.890;2023-07-08T04:31:42;13.80;99.90
20722;DHT22;10522;52.198;9.890;2023-07-08T04:34:09;13.90;99.90
20722;DHT22;10522;52.198;9.890;2023-07-08T04:36:35;13.90;99.90
20722;DHT22;10522;52.198;9.890;2023-07-08T04:39:05;14.00;99.90
20722;DHT22;10522;52.198;9.890;2023-07-08T04:41:31;14.10;99.90
20722;DHT22;10522;52.198;9.890;2023-07-08T04:43:57;14.10;99.90
20722;DHT22;10522;52.198;9.890;2023-07-08T04:46:38;14.30;99.90
20722;DHT22;10522;52.198;9.890;2023-07-08T04:49:06;14.40;99.90
20722;DHT22;10522;52.198;9.890;2023-07-08T04:51:32;14.50;99.90
20722;DHT22;10522;52.198;9.890;2023-07-08T04:53:58;14.50;99.90
20722;DHT22;10522;52.198;9.890;2023-07-08T04:56:32;14.70;99.90
20722;DHT22;10522;52.198;9.890;2023-07-08T04:59:00;14.80;99.90
20722;DHT22;10522;52.198;9.890;2023-07-08T05:01:27;14.80;99.90
20722;DHT22;10522;52.198;9.890;2023-07-08T05:03:52;14.90;99.90
20722;DHT22;10522;52.198;9.890;2023-07-08T05:06:18;15.00;99.90
20722;DHT22;10522;52.198;9.890;2023-07-08T05:08:44;15.00;99.90
20722;DHT22;10522;52.198;9.890;2023-07-08T05:11:09;15.10;99.90
20722;DHT22;10522;52.198;9.890;2023-07-08T05:13:35;15.20;99.90
20722;DHT22;10522;52.198;9.890;2023-07-08T05:16:00;15.30;99.90
20722;DHT22;10522;52.198;9.890;2023-07-08T05:18:26;15.40;99.90
20722;DHT22;10522;52.198;9.890;2023-07-08T05:20:52;15.30;99.90
20722;DHT22;10522;52.198;9.890;2023-07-08T05:23:18;15.50;99.90
20722;DHT22;10522;52.198;9.890;2023-07-08T05:25:43;15.50;99.90
20722;DHT22;10522;52.198;9.890;2023-07-08T05:28:09;15.60;99.90
20722;DHT22;10522;52.198;9.890;2023-07-08T05:30:35;15.70;99.90
20722;DHT22;10522;52.198;9.890;2023-07-08T05:33:01;15.90;99.90
20722;DHT22;10522;52.198;9.890;2023-07-08T05:35:26;16.00;99.90
20722;DHT22;10522;52.198;9.890;2023-07-08T05:37:52;16.10;99.90
20722;DHT22;10522;52.198;9.890;2023-07-08T05:40:18;16.30;99.90
20722;DHT22;10522;52.198;9.890;2023-07-08T05:42:43;16.50;99.90
20722;DHT22;10522;52.198;9.890;2023-07-08T05:45:09;16.70;99.90
20722;DHT22;10522;52.198;9.890;2023-07-08T05:47:37;17.10;99.90
20722;DHT22;10522;52.198;9.890;2023-07-08T05:50:03;17.00;99.90
20722;DHT22;10522;52.198;9.890;2023-07-08T05:52:29;17.10;99.90
20722;DHT22;10522;52.198;9.890;2023-07-08T05:54:55;17.20;99.90
20722;DHT22;10522;52.198;9.890;2023-07-08T05:57:21;17.30;99.90
20722;DHT22;10522;52.198;9.890;2023-07-08T05:59:49;17.40;99.90
20722;DHT22;10522;52.198;9.890;2023-07-08T06:02:16;17.40;99.90
20722;DHT22;10522;52.198;9.890;2023-07-08T06:04:42;17.40;99.90
20722;DHT22;10522;52.198;9.890;2023-07-08T06:07:08;17.60;99.90
20722;DHT22;10522;52.198;9.890;2023-07-08T06:09:34;17.90;99.90
20722;DHT22;10522;52.198;9.890;2023-07-08T06:12:00;18.10;99.90
20722;DHT22;10522;52.198;9.890;2023-07-08T06:14:26;18.40;99.90
20722;DHT22;10522;52.198;9.890;2023-07-08T06:16:52;18.60;99.90
20722;DHT22;10522;52.198;9.890;2023-07-08T06:19:18;19.00;99.90
20722;DHT22;10522;52.198;9.890;2023-07-08T06:21:43;19.10;99.90
20722;DHT22;10522;52.198;9.890;2023-07-08T06:24:09;19.40;99.90
20722;DHT22;10522;52.198;9.890;2023-07-08T06:26:35;19.50;99.90
20722;DHT22;10522;52.198;9.890;2023-07-08T06:29:00;19.60;99.90
20722;DHT22;10522;52.198;9.890;2023-07-08T06:31:26;19.70;99.90
20722;DHT22;10522;52.198;9.890;2023-07-08T06:33:51;19.90;99.90
20722;DHT22;10522;52.198;9.890;2023-07-08T06:36:17;20.10;99.90
20722;DHT22;10522;52.198;9.890;2023-07-08T06:38:43;20.20;99.90
20722;DHT22;10522;52.198;9.890;2023-07-08T06:41:08;20.60;99.90
20722;DHT22;10522;52.198;9.890;2023-07-08T06:43:34;21.00;99.90
20722;DHT22;10522;52.198;9.890;2023-07-08T06:45:59;20.90;99.90
20722;DHT22;10522;52.198;9.890;2023-07-08T06:48:25;21.00;99.90
20722;DHT22;10522;52.198;9.890;2023-07-08T06:50:50;21.10;99.90
20722;DHT22;10522;52.198;9.890;2023-07-08T06:53:16;21.40;99.90
20722;DHT22;10522;52.198;9.890;2023-07-08T06:55:44;21.50;99.90
20722;DHT22;10522;52.198;9.890;2023-07-08T06:58:10;21.40;99.90
20722;DHT22;10522;52.198;9.890;2023-07-08T07:00:36;21.60;99.90
20722;DHT22;10522;52.198;9.890;2023-07-08T07:03:02;21.90;99.90
20722;DHT22;10522;52.198;9.890;2023-07-08T07:05:27;21.70;99.90
20722;DHT22;10522;52.198;9.890;2023-07-08T07:07:53;21.90;99.90
20722;DHT22;10522;52.198;9.890;2023-07-08T07:10:19;21.90;99.90
20722;DHT22;10522;52.198;9.890;2023-07-08T07:12:45;22.10;99.90
20722;DHT22;10522;52.198;9.890;2023-07-08T07:15:10;22.10;99.90
20722;DHT22;10522;52.198;9.890;2023-07-08T07:17:36;22.50;99.90
20722;DHT22;10522;52.198;9.890;2023-07-08T07:20:03;22.60;99.90
20722;DHT22;10522;52.198;9.890;2023-07-08T07:22:28;22.80;99.90
20722;DHT22;10522;52.198;9.890;2023-07-08T07:24:54;22.70;99.90
20722;DHT22;10522;52.198;9.890;2023-07-08T07:27:20;22.70;99.90
20722;DHT22;10522;52.198;9.890;2023-07-08T07:29:48;22.90;99.90
20722;DHT22;10522;52.198;9.890;2023-07-08T07:32:15;22.80;99.90
20722;DHT22;10522;52.198;9.890;2023-07-08T07:34:42;22.90;99.90
20722;DHT22;10522;52.198;9.890;2023-07-08T07:37:12;23.10;99.90
20722;DHT22;10522;52.198;9.890;2023-07-08T07:39:39;23.10;99.90
20722;DHT22;10522;52.198;9.890;2023-07-08T07:42:05;23.30;99.90
20722;DHT22;10522;52.198;9.890;2023-07-08T07:44:31;23.40;99.90
20722;DHT22;10522;52.198;9.890;2023-07-08T07:46:56;23.60;99.90
20722;DHT22;10522;52.198;9.890;2023-07-08T07:49:22;23.70;99.90
20722;DHT22;10522;52.198;9.890;2023-07-08T07:51:48;23.80;99.90
20722;DHT22;10522;52.198;9.890;2023-07-08T07:54:14;24.10;99.90
20722;DHT22;10522;52.198;9.890;2023-07-08T07:56:39;23.90;99.90
20722;DHT22;10522;52.198;9.890;2023-07-08T07:59:05;24.10;99.90
20722;DHT22;10522;52.198;9.890;2023-07-08T08:01:31;24.20;99.90
20722;DHT22;10522;52.198;9.890;2023-07-08T08:03:56;24.30;99.90
20722;DHT22;10522;52.198;9.890;2023-07-08T08:06:23;24.30;99.90
20722;DHT22;10522;52.198;9.890;2023-07-08T08:08:49;24.60;99.90
20722;DHT22;10522;52.198;9.890;2023-07-08T08:11:15;24.70;99.90
20722;DHT22;10522;52.198;9.890;2023-07-08T08:13:41;24.70;99.90
20722;DHT22;10522;52.198;9.890;2023-07-08T08:16:06;24.80;99.90
20722;DHT22;10522;52.198;9.890;2023-07-08T08:18:32;25.00;99.90
20722;DHT22;10522;52.198;9.890;2023-07-08T08:20:57;25.00;99.90
20722;DHT22;10522;52.198;9.890;2023-07-08T08:23:23;25.10;99.90
20722;DHT22;10522;52.198;9.890;2023-07-08T08:25:50;25.20;99.90
20722;DHT22;10522;52.198;9.890;2023-07-08T08:28:16;25.20;99.90
20722;DHT22;10522;52.198;9.890;2023-07-08T08:30:42;25.40;99.90
20722;DHT22;10522;52.198;9.890;2023-07-08T08:33:07;25.40;99.90
20722;DHT22;10522;52.198;9.890;2023-07-08T08:35:33;25.50;99.90
20722;DHT22;10522;52.198;9.890;2023-07-08T08:37:59;25.40;99.90
20722;DHT22;10522;52.198;9.890;2023-07-08T08:40:24;25.50;99.90
20722;DHT22;10522;52.198;9.890;2023-07-08T08:45:19;25.70;99.90
20722;DHT22;10522;52.198;9.890;2023-07-08T08:47:52;25.70;99.90
20722;DHT22;10522;52.198;9.890;2023-07-08T08:50:44;25.60;99.90
20722;DHT22;10522;52.198;9.890;2023-07-08T08:53:14;25.80;99.90
20722;DHT22;10522;52.198;9.890;2023-07-08T08:55:41;25.90;99.90
20722;DHT22;10522;52.198;9.890;2023-07-08T08:58:26;26.30;99.90
20722;DHT22;10522;52.198;9.890;2023-07-08T09:01:01;26.20;99.90
20722;DHT22;10522;52.198;9.890;2023-07-08T09:06:20;26.00;99.90
20722;DHT22;10522;52.198;9.890;2023-07-08T09:08:46;26.30;99.90
20722;DHT22;10522;52.198;9.890;2023-07-08T09:13:44;26.70;99.90
20722;DHT22;10522;52.198;9.890;2023-07-08T09:19:28;26.80;99.90
20722;DHT22;10522;52.198;9.890;2023-07-08T09:22:11;26.70;99.90
20722;DHT22;10522;52.198;9.890;2023-07-08T09:27:19;26.90;99.90
20722;DHT22;10522;52.198;9.890;2023-07-08T09:29:46;26.90;99.90
20722;DHT22;10522;52.198;9.890;2023-07-08T09:32:18;26.90;99.90
20722;DHT22;10522;52.198;9.890;2023-07-08T09:35:05;27.20;99.90
20722;DHT22;10522;52.198;9.890;2023-07-08T09:37:32;27.30;99.90
20722;DHT22;10522;52.198;9.890;2023-07-08T09:40:00;27.40;99.90
20722;DHT22;10522;52.198;9.890;2023-07-08T09:42:33;27.20;99.90
20722;DHT22;10522;52.198;9.890;2023-07-08T09:45:15;27.60;99.90
20722;DHT22;10522;52.198;9.890;2023-07-08T09:47:43;28.00;99.90
20722;DHT22;10522;52.198;9.890;2023-07-08T09:50:31;28.10;99.90
20722;DHT22;10522;52.198;9.890;2023-07-08T09:52:59;28.10;99.90
20722;DHT22;10522;52.198;9.890;2023-07-08T09:55:27;28.10;99.90
20722;DHT22;10522;52.198;9.890;2023-07-08T09:57:56;28.30;99.90
20722;DHT22;10522;52.198;9.890;2023-07-08T10:00:30;28.20;99.90
20722;DHT22;10522;52.198;9.890;2023-07-08T10:03:03;28.30;99.90
20722;DHT22;10522;52.198;9.890;2023-07-08T10:05:34;28.50;99.90
20722;DHT22;10522;52.198;9.890;2023-07-08T10:08:03;28.60;99.90
20722;DHT22;10522;52.198;9.890;2023-07-08T10:10:35;28.80;99.90
20722;DHT22;10522;52.198;9.890;2023-07-08T10:13:04;28.90;99.90
20722;DHT22;10522;52.198;9.890;2023-07-08T10:15:41;29.00;99.90
20722;DHT22;10522;52.198;9.890;2023-07-08T10:18:15;29.20;99.90
20722;DHT22;10522;52.198;9.890;2023-07-08T10:20:59;29.40;99.90
20722;DHT22;10522;52.198;9.890;2023-07-08T10:23:51;29.60;99.90
20722;DHT22;10522;52.198;9.890;2023-07-08T10:26:27;29.40;99.90
20722;DHT22;10522;52.198;9.890;2023-07-08T10:40:31;29.70;99.90
20722;DHT22;10522;52.198;9.890;2023-07-08T10:48:58;30.10;99.90
20722;DHT22;10522;52.198;9.890;2023-07-08T10:51:54;30.30;99.90
20722;DHT22;10522;52.198;9.890;2023-07-08T11:00:07;30.30;99.90
20722;DHT22;10522;52.198;9.890;2023-07-08T11:02:43;30.30;99.90
20722;DHT22;10522;52.198;9.890;2023-07-08T11:08:12;30.80;99.90
20722;DHT22;10522;52.198;9.890;2023-07-08T11:11:01;30.90;99.90
20722;DHT22;10522;52.198;9.890;2023-07-08T11:13:30;31.00;99.90
20722;DHT22;10522;52.198;9.890;2023-07-08T11:16:05;31.00;99.90
20722;DHT22;10522;52.198;9.890;2023-07-08T11:18:48;31.00;99.90
20722;DHT22;10522;52.198;9.890;2023-07-08T11:27:00;31.40;99.90
20722;DHT22;10522;52.198;9.890;2023-07-08T11:29:45;31.50;99.90
20722;DHT22;10522;52.198;9.890;2023-07-08T11:32:16;31.40;99.90
20722;DHT22;10522;52.198;9.890;2023-07-08T11:34:43;31.30;99.90
20722;DHT22;10522;52.198;9.890;2023-07-08T11:37:10;31.40;99.90
20722;DHT22;10522;52.198;9.890;2023-07-08T11:39:42;31.40;99.90
20722;DHT22;10522;52.198;9.890;2023-07-08T11:45:08;31.50;99.90
20722;DHT22;10522;52.198;9.890;2023-07-08T11:47:44;31.40;99.90
20722;DHT22;10522;52.198;9.890;2023-07-08T11:52:53;31.50;99.90
20722;DHT22;10522;52.198;9.890;2023-07-08T11:58:28;31.40;99.90
20722;DHT22;10522;52.198;9.890;2023-07-08T12:01:23;31.60;99.90
20722;DHT22;10522;52.198;9.890;2023-07-08T12:03:54;31.70;99.90
20722;DHT22;10522;52.198;9.890;2023-07-08T12:08:53;31.70;99.90
20722;DHT22;10522;52.198;9.890;2023-07-08T12:11:31;31.80;99.90
20722;DHT22;10522;52.198;9.890;2023-07-08T12:14:02;31.90;99.90
20722;DHT22;10522;52.198;9.890;2023-07-08T12:16:30;32.10;99.90
20722;DHT22;10522;52.198;9.890;2023-07-08T12:18:59;32.10;99.90
20722;DHT22;10522;52.198;9.890;2023-07-08T12:21:27;32.10;99.90
20722;DHT22;10522;52.198;9.890;2023-07-08T12:23:53;32.40;99.90
20722;DHT22;10522;52.198;9.890;2023-07-08T12:26:21;32.50;99.90
20722;DHT22;10522;52.198;9.890;2023-07-08T12:28:47;32.60;99.90
20722;DHT22;10522;52.198;9.890;2023-07-08T12:31:19;32.50;99.90
20722;DHT22;10522;52.198;9.890;2023-07-08T12:33:45;32.50;99.90
20722;DHT22;10522;52.198;9.890;2023-07-08T12:36:21;32.60;99.90
20722;DHT22;10522;52.198;9.890;2023-07-08T12:38:48;32.70;99.90
20722;DHT22;10522;52.198;9.890;2023-07-08T12:41:18;32.70;99.90
20722;DHT22;10522;52.198;9.890;2023-07-08T12:43:46;32.60;99.90
20722;DHT22;10522;52.198;9.890;2023-07-08T12:46:14;32.30;99.90
20722;DHT22;10522;52.198;9.890;2023-07-08T12:48:41;32.70;99.90
20722;DHT22;10522;52.198;9.890;2023-07-08T12:51:12;32.80;99.90
20722;DHT22;10522;52.198;9.890;2023-07-08T12:53:38;32.60;99.90
20722;DHT22;10522;52.198;9.890;2023-07-08T12:56:04;32.60;99.90
20722;DHT22;10522;52.198;9.890;2023-07-08T12:58:33;32.70;99.90
20722;DHT22;10522;52.198;9.890;2023-07-08T13:01:01;32.70;99.90
20722;DHT22;10522;52.198;9.890;2023-07-08T13:03:30;32.70;99.90
20722;DHT22;10522;52.198;9.890;2023-07-08T13:05:57;32.60;99.90
20722;DHT22;10522;52.198;9.890;2023-07-08T13:08:25;32.80;99.90
20722;DHT22;10522;52.198;9.890;2023-07-08T13:10:55;32.90;99.90
20722;DHT22;10522;52.198;9.890;2023-07-08T13:13:23;32.90;99.90
20722;DHT22;10522;52.198;9.890;2023-07-08T13:15:50;32.80;99.90
20722;DHT22;10522;52.198;9.890;2023-07-08T13:18:18;32.70;99.90
20722;DHT22;10522;52.198;9.890;2023-07-08T13:20:53;32.60;99.90
20722;DHT22;10522;52.198;9.890;2023-07-08T13:23:19;32.70;99.90
20722;DHT22;10522;52.198;9.890;2023-07-08T13:25:48;32.60;99.90
20722;DHT22;10522;52.198;9.890;2023-07-08T13:28:15;32.40;99.90
20722;DHT22;10522;52.198;9.890;2023-07-08T13:30:50;32.50;99.90
20722;DHT22;10522;52.198;9.890;2023-07-08T13:33:18;32.50;99.90
20722;DHT22;10522;52.198;9.890;2023-07-08T13:35:45;32.70;99.90
20722;DHT22;10522;52.198;9.890;2023-07-08T13:38:23;32.70;99.90
20722;DHT22;10522;52.198;9.890;2023-07-08T13:40:55;32.70;99.90
20722;DHT22;10522;52.198;9.890;2023-07-08T13:43:40;33.00;99.90
20722;DHT22;10522;52.198;9.890;2023-07-08T13:48:53;32.90;99.90
20722;DHT22;10522;52.198;9.890;2023-07-08T13:51:21;32.90;99.90
20722;DHT22;10522;52.198;9.890;2023-07-08T13:53:53;33.00;99.90
20722;DHT22;10522;52.198;9.890;2023-07-08T13:58:53;33.20;99.90
20722;DHT22;10522;52.198;9.890;2023-07-08T14:01:25;33.10;99.90
20722;DHT22;10522;52.198;9.890;2023-07-08T14:03:52;33.20;99.90
20722;DHT22;10522;52.198;9.890;2023-07-08T14:06:28;33.10;99.90
20722;DHT22;10522;52.198;9.890;2023-07-08T14:08:57;32.90;99.90
20722;DHT22;10522;52.198;9.890;2023-07-08T14:11:23;32.80;99.90
20722;DHT22;10522;52.198;9.890;2023-07-08T14:13:49;33.00;99.90
20722;DHT22;10522;52.198;9.890;2023-07-08T14:16:25;33.10;99.90
20722;DHT22;10522;52.198;9.890;2023-07-08T14:18:54;33.10;99.90
20722;DHT22;10522;52.198;9.890;2023-07-08T14:21:20;33.30;99.90
20722;DHT22;10522;52.198;9.890;2023-07-08T14:23:46;33.40;99.90
20722;DHT22;10522;52.198;9.890;2023-07-08T14:26:12;33.20;99.90
20722;DHT22;10522;52.198;9.890;2023-07-08T14:28:37;33.10;99.90
20722;DHT22;10522;52.198;9.890;2023-07-08T14:31:11;33.00;99.90
20722;DHT22;10522;52.198;9.890;2023-07-08T14:33:38;33.00;99.90
20722;DHT22;10522;52.198;9.890;2023-07-08T14:36:10;33.00;99.90
20722;DHT22;10522;52.198;9.890;2023-07-08T14:38:36;32.90;99.90
20722;DHT22;10522;52.198;9.890;2023-07-08T14:41:02;33.00;99.90
20722;DHT22;10522;52.198;9.890;2023-07-08T14:43:30;33.00;99.90
20722;DHT22;10522;52.198;9.890;2023-07-08T14:46:03;33.20;99.90
20722;DHT22;10522;52.198;9.890;2023-07-08T14:48:30;33.30;99.90
20722;DHT22;10522;52.198;9.890;2023-07-08T14:50:56;33.50;99.90
20722;DHT22;10522;52.198;9.890;2023-07-08T14:53:22;33.40;99.90
20722;DHT22;10522;52.198;9.890;2023-07-08T14:55:50;33.60;99.90
20722;DHT22;10522;52.198;9.890;2023-07-08T14:58:30;33.30;99.90
20722;DHT22;10522;52.198;9.890;2023-07-08T15:00:59;33.40;99.90
20722;DHT22;10522;52.198;9.890;2023-07-08T15:03:26;33.60;99.90
20722;DHT22;10522;52.198;9.890;2023-07-08T15:05:52;33.20;99.90
20722;DHT22;10522;52.198;9.890;2023-07-08T15:08:17;33.10;99.90
20722;DHT22;10522;52.198;9.890;2023-07-08T15:10:52;33.00;99.90
20722;DHT22;10522;52.198;9.890;2023-07-08T15:13:20;32.90;99.90
20722;DHT22;10522;52.198;9.890;2023-07-08T15:15:47;33.20;99.90
20722;DHT22;10522;52.198;9.890;2023-07-08T15:18:17;33.40;99.90
20722;DHT22;10522;52.198;9.890;2023-07-08T15:20:44;33.40;99.90
20722;DHT22;10522;52.198;9.890;2023-07-08T15:23:10;33.30;99.90
20722;DHT22;10522;52.198;9.890;2023-07-08T15:25:51;33.50;99.90
20722;DHT22;10522;52.198;9.890;2023-07-08T15:28:25;33.20;99.90
20722;DHT22;10522;52.198;9.890;2023-07-08T15:30:59;33.20;99.90
20722;DHT22;10522;52.198;9.890;2023-07-08T15:33:29;33.20;99.90
20722;DHT22;10522;52.198;9.890;2023-07-08T15:35:58;33.20;99.90
20722;DHT22;10522;52.198;9.890;2023-07-08T15:38:50;33.10;99.90
20722;DHT22;10522;52.198;9.890;2023-07-08T15:41:42;33.20;99.90
20722;DHT22;10522;52.198;9.890;2023-07-08T15:44:12;33.20;99.90
20722;DHT22;10522;52.198;9.890;2023-07-08T15:46:41;33.20;99.90
20722;DHT22;10522;52.198;9.890;2023-07-08T15:49:21;33.40;99.90
20722;DHT22;10522;52.198;9.890;2023-07-08T15:51:52;33.20;99.90
20722;DHT22;10522;52.198;9.890;2023-07-08T15:54:19;33.10;99.90
20722;DHT22;10522;52.198;9.890;2023-07-08T15:56:46;33.00;99.90
20722;DHT22;10522;52.198;9.890;2023-07-08T15:59:14;32.90;99.90
20722;DHT22;10522;52.198;9.890;2023-07-08T16:01:41;33.20;99.90
20722;DHT22;10522;52.198;9.890;2023-07-08T16:04:31;33.90;99.90
20722;DHT22;10522;52.198;9.890;2023-07-08T16:06:57;34.50;99.90
20722;DHT22;10522;52.198;9.890;2023-07-08T16:09:23;34.40;99.90
20722;DHT22;10522;52.198;9.890;2023-07-08T16:11:49;35.00;99.90
20722;DHT22;10522;52.198;9.890;2023-07-08T16:14:15;35.30;99.90
20722;DHT22;10522;52.198;9.890;2023-07-08T16:16:42;35.20;99.90
20722;DHT22;10522;52.198;9.890;2023-07-08T16:19:12;35.30;99.90
20722;DHT22;10522;52.198;9.890;2023-07-08T16:21:39;35.50;99.90
20722;DHT22;10522;52.198;9.890;2023-07-08T16:24:05;35.30;99.90
20722;DHT22;10522;52.198;9.890;2023-07-08T16:26:31;35.50;99.90
20722;DHT22;10522;52.198;9.890;2023-07-08T16:28:57;35.40;99.90
20722;DHT22;10522;52.198;9.890;2023-07-08T16:31:25;35.60;99.90
20722;DHT22;10522;52.198;9.890;2023-07-08T16:33:54;35.40;99.90
20722;DHT22;10522;52.198;9.890;2023-07-08T16:36:25;34.90;99.90
20722;DHT22;10522;52.198;9.890;2023-07-08T16:38:52;35.70;99.90
20722;DHT22;10522;52.198;9.890;2023-07-08T16:41:20;35.60;99.90
20722;DHT22;10522;52.198;9.890;2023-07-08T16:43:47;35.00;99.90